createdAt,value
2017-07-11T09:25:37.585Z,990.25
2017-07-11T09:26:34.381Z,990.27
2017-07-11T09:27:34.382Z,990.26
2017-07-11T09:28:34.382Z,990.25
2017-07-11T09:29:34.384Z,990.27
2017-07-11T09:30:34.387Z,990.21
2017-07-11T09:31:34.390Z,990.22
2017-07-11T09:32:34.399Z,990.25
2017-07-11T09:33:34.396Z,990.26
2017-07-11T09:34:34.401Z,990.3
2017-07-11T09:35:34.402Z,990.28
2017-07-11T09:36:34.409Z,990.3
2017-07-11T09:37:34.414Z,990.3
2017-07-11T09:38:34.416Z,990.32
2017-07-11T09:39:34.420Z,990.32
2017-07-11T09:40:34.424Z,990.25
2017-07-11T09:41:34.435Z,990.21
2017-07-11T09:42:34.443Z,990.18
2017-07-11T09:43:34.442Z,990.14
2017-07-11T09:44:34.444Z,990.15
2017-07-11T09:45:34.450Z,990.11
2017-07-11T09:46:34.455Z,990.11
2017-07-11T09:47:34.460Z,990.05
2017-07-11T09:48:34.467Z,990.02
2017-07-11T09:49:34.477Z,990.03
2017-07-11T09:50:34.476Z,990
2017-07-11T09:51:34.488Z,990.01
2017-07-11T09:52:34.489Z,989.95
2017-07-11T09:53:34.494Z,989.98
2017-07-11T09:54:34.499Z,990.02
2017-07-11T09:55:34.505Z,990.04
2017-07-11T09:56:34.512Z,990.1
2017-07-11T09:57:34.518Z,990.14
2017-07-11T09:58:34.521Z,990.08
2017-07-11T09:59:34.526Z,990.11
2017-07-11T10:00:34.532Z,990.12
2017-07-11T10:01:34.537Z,990.09
2017-07-11T10:02:34.542Z,990.16
2017-07-11T10:03:34.547Z,990.16
2017-07-11T10:04:34.558Z,990.1
2017-07-11T10:05:34.558Z,990.07
2017-07-11T10:06:34.565Z,990.04
2017-07-11T10:07:34.570Z,990.07
2017-07-11T10:08:34.575Z,990.04
2017-07-11T10:09:34.582Z,990.01
2017-07-11T10:10:34.587Z,990.04
2017-07-11T10:11:34.595Z,990.02
2017-07-11T10:12:34.599Z,990
2017-07-11T10:13:34.609Z,990.01
2017-07-11T10:14:34.611Z,990.06
2017-07-11T10:15:34.617Z,990.01
2017-07-11T10:16:34.622Z,990.04
2017-07-11T10:17:34.627Z,990.06
2017-07-11T10:18:34.637Z,990.01
2017-07-11T10:19:34.639Z,989.98
2017-07-11T10:20:34.647Z,990.03
2017-07-11T10:21:34.651Z,990.01
2017-07-11T10:22:34.657Z,989.97
2017-07-11T10:23:34.662Z,989.99
2017-07-11T10:24:34.670Z,990.03
2017-07-11T10:25:34.673Z,990.03
2017-07-11T10:26:35.581Z,990
2017-07-11T10:27:34.684Z,989.97
2017-07-11T10:28:34.690Z,989.91
2017-07-11T10:29:34.724Z,989.95
2017-07-11T10:30:34.702Z,989.88
2017-07-11T10:31:34.712Z,989.84
2017-07-11T10:32:34.712Z,989.93
2017-07-11T10:33:34.725Z,989.91
2017-07-11T10:34:34.722Z,989.87
2017-07-11T10:35:34.728Z,989.91
2017-07-11T10:36:34.734Z,989.87
2017-07-11T10:37:34.741Z,989.88
2017-07-11T10:38:34.745Z,989.9
2017-07-11T10:39:34.750Z,989.9
2017-07-11T10:40:34.755Z,989.9
2017-07-11T10:41:34.762Z,989.95
2017-07-11T10:42:34.766Z,989.9
2017-07-11T10:43:34.772Z,989.93
2017-07-11T10:44:34.778Z,989.9
2017-07-11T10:45:34.782Z,989.87
2017-07-11T10:46:34.788Z,989.86
2017-07-11T10:47:34.850Z,989.98
2017-07-11T10:48:34.803Z,989.97
2017-07-11T10:49:34.806Z,990
2017-07-11T10:50:34.810Z,989.93
2017-07-11T10:51:34.816Z,990.03
2017-07-11T10:52:34.821Z,989.93
2017-07-11T10:53:34.826Z,989.92
2017-07-11T10:54:34.831Z,989.88
2017-07-11T10:55:34.837Z,989.86
2017-07-11T10:56:34.841Z,989.83
2017-07-11T10:57:34.904Z,989.81
2017-07-11T10:58:34.854Z,989.79
2017-07-11T10:59:34.859Z,989.75
2017-07-11T11:00:34.870Z,989.69
2017-07-11T11:01:34.873Z,989.7
2017-07-11T11:02:34.880Z,989.66
2017-07-11T11:03:34.881Z,989.63
2017-07-11T11:04:34.889Z,989.66
2017-07-11T11:05:34.894Z,989.64
2017-07-11T11:06:34.899Z,989.67
2017-07-11T11:07:34.904Z,989.67
2017-07-11T11:08:34.913Z,989.7
2017-07-11T11:09:34.916Z,989.7
2017-07-11T11:10:34.920Z,989.67
2017-07-11T11:11:34.930Z,989.68
2017-07-11T11:12:34.951Z,989.67
2017-07-11T11:13:34.938Z,989.73
2017-07-11T11:14:34.945Z,989.68
2017-07-11T11:15:34.949Z,989.67
2017-07-11T11:16:34.955Z,989.68
2017-07-11T11:17:34.960Z,989.65
2017-07-11T11:18:34.971Z,989.7
2017-07-11T11:19:34.970Z,989.74
2017-07-11T11:20:34.976Z,989.8
2017-07-11T11:21:34.981Z,989.8
2017-07-11T11:22:34.995Z,989.79
2017-07-11T11:23:34.993Z,989.83
2017-07-11T11:24:34.999Z,989.84
2017-07-11T11:25:35.004Z,989.86
2017-07-11T11:26:35.012Z,989.87
2017-07-11T11:27:35.016Z,989.86
2017-07-11T11:28:35.023Z,989.85
2017-07-11T11:29:35.027Z,989.86
2017-07-11T11:30:35.033Z,989.82
2017-07-11T11:31:35.037Z,989.77
2017-07-11T11:32:35.044Z,989.76
2017-07-11T11:33:35.051Z,989.77
2017-07-11T11:34:35.057Z,989.71
2017-07-11T11:35:35.063Z,989.71
2017-07-11T11:36:35.068Z,989.69
2017-07-11T11:37:35.076Z,989.67
2017-07-11T11:38:35.081Z,989.68
2017-07-11T11:39:35.087Z,989.6
2017-07-11T11:40:35.092Z,989.61
2017-07-11T11:41:35.098Z,989.59
2017-07-11T11:42:36.006Z,989.55
2017-07-11T11:43:35.111Z,989.57
2017-07-11T11:45:35.122Z,989.54
2017-07-11T11:46:35.143Z,989.57
2017-07-11T11:47:35.140Z,989.5
2017-07-11T11:48:35.143Z,989.46
2017-07-11T11:49:35.149Z,989.51
2017-07-11T11:50:35.155Z,989.46
2017-07-11T11:51:35.166Z,989.46
2017-07-11T11:52:35.166Z,989.46
2017-07-11T11:53:35.172Z,989.48
2017-07-11T11:54:35.177Z,989.5
2017-07-11T11:55:35.184Z,989.48
2017-07-11T11:56:35.190Z,989.47
2017-07-11T11:57:35.207Z,989.48
2017-07-11T11:58:35.204Z,989.45
2017-07-11T11:59:35.214Z,989.42
2017-07-11T12:00:35.215Z,989.49
2017-07-11T12:01:35.222Z,989.45
2017-07-11T12:02:35.227Z,989.47
2017-07-11T12:03:35.232Z,989.45
2017-07-11T12:04:35.240Z,989.42
2017-07-11T12:05:35.247Z,989.37
2017-07-11T12:06:35.251Z,989.36
2017-07-11T12:07:35.258Z,989.41
2017-07-11T12:38:24.407Z,989.22
2017-07-11T12:39:24.359Z,989.22
2017-07-11T12:40:24.361Z,989.22
2017-07-11T12:41:24.364Z,989.22
2017-07-11T12:42:24.368Z,989.2
2017-07-11T12:43:24.388Z,989.21
2017-07-11T12:44:24.381Z,989.22
2017-07-11T12:45:24.381Z,989.23
2017-07-11T12:46:24.386Z,989.29
2017-07-11T12:47:24.391Z,989.28
2017-07-11T12:48:24.396Z,989.31
2017-07-11T12:49:24.400Z,989.29
2017-07-11T12:50:24.407Z,989.22
2017-07-11T12:51:24.423Z,989.25
2017-07-11T12:52:24.417Z,989.24
2017-07-11T12:53:24.472Z,989.31
2017-07-11T12:54:24.429Z,989.32
2017-07-11T12:55:24.435Z,989.33
2017-07-11T12:56:24.444Z,989.31
2017-07-11T12:57:24.447Z,989.29
2017-07-11T12:58:24.451Z,989.32
2017-07-11T12:59:24.464Z,989.34
2017-07-11T13:00:24.462Z,989.29
2017-07-11T13:01:24.468Z,989.23
2017-07-11T13:02:24.474Z,989.23
2017-07-11T13:03:24.479Z,989.26
2017-07-11T13:04:24.485Z,989.26
2017-07-11T13:05:24.491Z,989.27
2017-07-11T13:06:24.496Z,989.26
2017-07-11T13:07:24.502Z,989.28
2017-07-11T13:08:24.508Z,989.26
2017-07-11T13:09:24.520Z,989.29
2017-07-11T13:10:24.520Z,989.28
2017-07-11T13:11:24.526Z,989.26
2017-07-11T13:12:24.532Z,989.31
2017-07-11T13:13:24.539Z,989.29
2017-07-11T13:14:24.544Z,989.27
2017-07-11T13:15:24.549Z,989.27
2017-07-11T13:16:24.555Z,989.28
2017-07-11T13:17:24.561Z,989.31
2017-07-11T13:18:24.567Z,989.28
2017-07-11T13:19:24.573Z,989.29
2017-07-11T13:20:24.584Z,989.31
2017-07-11T13:21:24.587Z,989.21
2017-07-11T13:22:24.592Z,989.17
2017-07-11T13:23:24.596Z,989.22
2017-07-11T13:24:24.603Z,989.25
2017-07-11T13:25:24.608Z,989.22
2017-07-11T13:26:24.614Z,989.26
2017-07-11T13:27:24.619Z,989.25
2017-07-11T13:28:24.630Z,989.22
2017-07-11T13:29:24.632Z,989.19
2017-07-11T13:30:24.638Z,989.16
2017-07-11T13:31:24.644Z,989.1
2017-07-11T13:32:24.656Z,989.04
2017-07-11T13:33:24.657Z,989.02
2017-07-11T13:34:24.677Z,989.01
2017-07-11T13:35:24.676Z,989.01
2017-07-11T13:36:24.679Z,989.03
2017-07-11T13:37:24.687Z,989.03
2017-07-11T13:38:24.698Z,989.04
2017-07-11T13:39:24.699Z,989.06
2017-07-11T13:40:24.699Z,989.07
2017-07-11T13:41:24.713Z,989.03
2017-07-11T13:42:24.729Z,989.01
2017-07-11T13:43:24.727Z,988.99
2017-07-11T13:44:24.731Z,988.99
2017-07-11T13:45:24.730Z,988.98
2017-07-11T13:46:24.749Z,989
2017-07-11T13:47:24.746Z,988.95
2017-07-11T13:48:24.748Z,988.96
2017-07-11T13:49:24.756Z,988.89
2017-07-11T13:50:24.759Z,988.89
2017-07-11T13:51:24.768Z,988.9
2017-07-11T13:52:24.784Z,988.88
2017-07-11T13:53:24.787Z,988.92
2017-07-11T13:54:25.688Z,988.9
2017-07-11T13:55:24.796Z,988.89
2017-07-11T13:56:24.800Z,988.91
2017-07-11T13:57:24.811Z,988.92
2017-07-11T13:58:24.817Z,988.91
2017-07-11T13:59:24.810Z,988.87
2017-07-11T14:00:24.815Z,988.86
2017-07-11T14:01:24.822Z,988.89
2017-07-11T14:02:24.828Z,988.87
2017-07-11T14:03:24.834Z,988.92
2017-07-11T14:04:24.841Z,988.95
2017-07-11T14:05:24.846Z,988.98
2017-07-11T14:06:24.852Z,989
2017-07-11T14:07:24.857Z,988.98
2017-07-11T14:08:24.862Z,988.99
2017-07-11T14:09:24.869Z,989.02
2017-07-11T14:10:24.873Z,988.99
2017-07-11T14:11:24.880Z,988.95
2017-07-11T14:12:24.887Z,988.95
2017-07-11T14:13:24.894Z,988.96
2017-07-11T14:14:24.899Z,988.96
2017-07-11T14:15:24.906Z,988.93
2017-07-11T14:16:24.910Z,989
2017-07-11T14:17:24.917Z,988.97
2017-07-11T14:18:24.922Z,988.96
2017-07-11T14:19:24.927Z,988.92
2017-07-11T14:20:24.932Z,988.95
2017-07-11T14:21:24.971Z,988.86
2017-07-11T14:22:24.944Z,988.81
2017-07-11T14:23:24.949Z,988.82
2017-07-11T14:24:24.956Z,988.8
2017-07-11T14:25:24.962Z,988.83
2017-07-11T14:26:24.968Z,988.8
2017-07-11T14:27:24.973Z,988.82
2017-07-11T14:28:24.980Z,988.82
2017-07-11T14:29:24.987Z,988.79
2017-07-11T14:30:24.999Z,988.75
2017-07-11T14:31:25.028Z,988.73
2017-07-11T14:32:25.003Z,988.71
2017-07-11T14:33:25.009Z,988.71
2017-07-11T14:34:25.012Z,988.8
2017-07-11T14:35:25.020Z,988.74
2017-07-11T14:36:25.025Z,988.75
2017-07-11T14:37:25.032Z,988.76
2017-07-11T14:38:25.036Z,988.7
2017-07-11T14:39:25.042Z,988.73
2017-07-11T14:40:27.101Z,988.79
2017-07-11T14:41:25.055Z,988.75
2017-07-11T14:42:25.060Z,988.72
2017-07-11T14:43:25.067Z,988.76
2017-07-11T14:44:25.076Z,988.74
2017-07-11T14:45:25.078Z,988.76
2017-07-11T14:46:25.082Z,988.78
2017-07-11T14:47:25.090Z,988.73
2017-07-11T14:48:25.095Z,988.74
2017-07-11T14:49:25.101Z,988.74
2017-07-11T14:50:25.104Z,988.75
2017-07-11T14:51:25.111Z,988.73
2017-07-11T14:52:25.121Z,988.77
2017-07-11T14:53:25.122Z,988.76
2017-07-11T14:54:25.130Z,988.73
2017-07-11T14:55:25.133Z,988.69
2017-07-11T14:56:25.139Z,988.69
2017-07-11T14:58:25.154Z,988.67
2017-07-11T14:59:25.171Z,988.6
2017-07-11T15:00:25.166Z,988.57
2017-07-11T15:01:25.176Z,988.53
2017-07-11T15:02:25.180Z,988.48
2017-07-11T15:03:25.179Z,988.5
2017-07-11T15:04:25.182Z,988.47
2017-07-11T15:05:25.189Z,988.44
2017-07-11T15:06:25.196Z,988.42
2017-07-11T15:07:25.201Z,988.44
2017-07-11T15:08:25.209Z,988.46
2017-07-11T15:09:25.227Z,988.42
2017-07-11T15:10:25.227Z,988.37
2017-07-11T15:11:25.231Z,988.4
2017-07-11T15:12:25.230Z,988.4
2017-07-11T15:13:25.237Z,988.39
2017-07-11T15:14:25.241Z,988.39
2017-07-11T15:15:25.247Z,988.42
2017-07-11T15:16:25.328Z,988.42
2017-07-11T15:17:25.274Z,988.44
2017-07-11T15:18:25.265Z,988.4
2017-07-11T15:19:25.270Z,988.4
2017-07-11T15:20:25.290Z,988.37
2017-07-11T15:21:25.291Z,988.29
2017-07-11T15:22:25.290Z,988.31
2017-07-11T15:23:25.293Z,988.34
2017-07-11T15:24:25.300Z,988.32
2017-07-11T15:25:25.307Z,988.32
2017-07-11T15:26:25.661Z,988.33
2017-07-11T15:27:25.318Z,988.32
2017-07-11T15:28:25.324Z,988.32
2017-07-11T15:29:25.335Z,988.29
2017-07-11T15:30:25.335Z,988.28
2017-07-11T15:31:25.340Z,988.32
2017-07-11T15:32:25.349Z,988.28
2017-07-11T15:33:25.356Z,988.28
2017-07-11T15:34:25.359Z,988.28
2017-07-11T15:35:25.366Z,988.26
2017-07-11T15:36:25.373Z,988.26
2017-07-11T15:37:25.377Z,988.2
2017-07-11T15:38:25.387Z,988.23
2017-07-11T15:39:25.390Z,988.21
2017-07-11T15:40:25.397Z,988.22
2017-07-11T15:41:25.401Z,988.23
2017-07-11T15:42:25.418Z,988.21
2017-07-11T15:43:25.415Z,988.19
2017-07-11T15:44:25.421Z,988.17
2017-07-11T15:45:25.429Z,988.17
2017-07-11T15:46:25.434Z,988.22
2017-07-11T15:47:25.444Z,988.2
2017-07-11T15:48:25.448Z,988.2
2017-07-11T15:49:25.458Z,988.15
2017-07-11T15:50:25.461Z,988.14
2017-07-11T15:51:25.465Z,988.16
2017-07-11T15:52:25.472Z,988.16
2017-07-11T15:53:25.489Z,988.23
2017-07-11T15:54:25.488Z,988.2
2017-07-11T15:55:25.489Z,988.17
2017-07-11T15:56:25.496Z,988.15
2017-07-11T15:57:25.615Z,988.18
2017-07-11T15:58:25.511Z,988.16
2017-07-11T15:59:25.525Z,988.13
2017-07-11T16:00:25.530Z,988.1
2017-07-11T16:01:25.530Z,988.11
2017-07-11T16:02:25.534Z,988.12
2017-07-11T16:03:25.539Z,988.14
2017-07-11T16:04:25.558Z,988.11
2017-07-11T16:05:25.554Z,988.1
2017-07-11T16:06:25.557Z,988.04
2017-07-11T16:07:25.573Z,988.04
2017-07-11T16:08:25.572Z,988.05
2017-07-11T16:09:25.575Z,988.06
2017-07-11T16:10:25.585Z,988.02
2017-07-11T16:11:25.604Z,988.06
2017-07-11T16:12:25.603Z,988.07
2017-07-11T16:13:25.601Z,988.04
2017-07-11T16:14:25.616Z,988.05
2017-07-11T16:15:25.635Z,988.05
2017-07-11T16:16:25.637Z,988.11
2017-07-11T16:17:25.627Z,988.09
2017-07-11T16:18:25.631Z,988.13
2017-07-11T16:19:25.643Z,988.13
2017-07-11T16:20:25.653Z,988.09
2017-07-11T16:21:25.651Z,988.11
2017-07-11T16:22:25.648Z,988.12
2017-07-11T16:23:25.654Z,988.04
2017-07-11T16:24:25.659Z,988.04
2017-07-11T16:25:25.668Z,988.08
2017-07-11T16:26:25.710Z,988.08
2017-07-11T16:27:25.677Z,988.05
2017-07-11T16:28:25.682Z,988.04
2017-07-11T16:29:25.688Z,988
2017-07-11T16:30:25.694Z,988.02
2017-07-11T16:31:25.739Z,988.04
2017-07-11T16:32:25.712Z,988.06
2017-07-11T16:33:25.710Z,988.07
2017-07-11T16:34:25.717Z,988.03
2017-07-11T16:35:25.723Z,988.05
2017-07-11T16:36:25.733Z,988
2017-07-11T16:37:25.732Z,988.02
2017-07-11T16:38:25.738Z,987.98
2017-07-11T16:39:25.743Z,988.02
2017-07-11T16:40:25.749Z,988.04
2017-07-11T16:41:25.755Z,988.07
2017-07-11T16:42:25.759Z,988.1
2017-07-11T16:43:25.765Z,988.07
2017-07-11T16:44:25.775Z,988.07
2017-07-11T16:45:25.776Z,988.07
2017-07-11T16:46:25.779Z,988
2017-07-11T16:47:25.786Z,988.03
2017-07-11T16:48:25.792Z,988.05
2017-07-11T16:49:25.798Z,987.99
2017-07-11T16:50:25.807Z,987.99
2017-07-11T16:51:25.809Z,987.97
2017-07-11T16:52:25.817Z,987.95
2017-07-11T16:53:25.819Z,987.96
2017-07-11T16:54:25.826Z,987.91
2017-07-11T16:55:25.833Z,987.91
2017-07-11T16:56:25.839Z,987.92
2017-07-11T16:57:25.839Z,987.94
2017-07-11T16:58:25.845Z,987.94
2017-07-11T16:59:25.855Z,987.94
2017-07-11T17:00:25.896Z,987.95
2017-07-11T17:01:25.900Z,987.94
2017-07-11T17:02:25.867Z,987.91
2017-07-11T17:03:25.880Z,987.92
2017-07-11T17:04:25.886Z,987.93
2017-07-11T17:05:25.976Z,987.98
2017-07-11T17:06:25.908Z,987.96
2017-07-11T17:07:25.910Z,987.99
2017-07-11T17:08:25.904Z,987.97
2017-07-11T17:09:25.909Z,987.97
2017-07-11T17:10:25.923Z,988.01
2017-07-11T17:11:25.979Z,988
2017-07-11T17:12:25.965Z,987.98
2017-07-11T17:13:25.924Z,987.98
2017-07-11T17:14:25.934Z,987.99
2017-07-11T17:15:25.997Z,988.01
2017-07-11T17:16:25.943Z,988.02
2017-07-11T17:17:25.949Z,988.04
2017-07-11T17:18:25.950Z,988.04
2017-07-11T17:19:25.955Z,988.03
2017-07-11T17:20:25.974Z,988.02
2017-07-11T17:21:25.969Z,988.03
2017-07-11T17:22:25.980Z,988.01
2017-07-11T17:23:25.978Z,988
2017-07-11T17:24:25.987Z,987.97
2017-07-11T17:25:25.991Z,987.99
2017-07-11T17:26:25.994Z,987.96
2017-07-11T17:27:26.005Z,987.96
2017-07-11T17:28:26.106Z,987.95
2017-07-11T17:29:26.011Z,987.91
2017-07-11T17:30:26.085Z,987.92
2017-07-11T17:31:26.018Z,987.85
2017-07-11T17:32:26.042Z,987.88
2017-07-11T17:33:26.035Z,987.88
2017-07-11T17:34:26.039Z,987.85
2017-07-11T17:35:26.039Z,987.85
2017-07-11T17:36:26.043Z,987.87
2017-07-11T17:37:26.048Z,987.86
2017-07-11T17:38:26.133Z,987.88
2017-07-11T17:39:26.059Z,987.85
2017-07-11T17:40:26.064Z,987.87
2017-07-11T17:41:26.068Z,987.92
2017-07-11T17:42:26.074Z,987.86
2017-07-11T17:43:27.331Z,987.9
2017-07-11T17:44:26.083Z,987.92
2017-07-11T17:45:26.088Z,987.92
2017-07-11T17:46:26.100Z,987.88
2017-07-11T17:47:26.099Z,987.95
2017-07-11T17:48:26.105Z,987.95
2017-07-11T17:49:26.108Z,987.97
2017-07-11T17:50:26.112Z,987.91
2017-07-11T17:51:26.118Z,987.96
2017-07-11T17:52:26.124Z,987.99
2017-07-11T17:53:26.128Z,987.99
2017-07-11T17:54:26.133Z,988
2017-07-11T17:55:26.140Z,988.01
2017-07-11T17:56:26.142Z,988.04
2017-07-11T17:57:26.146Z,988.08
2017-07-11T17:58:26.155Z,988.06
2017-07-11T17:59:26.170Z,988.03
2017-07-11T18:00:26.163Z,988
2017-07-11T18:01:26.167Z,988.02
2017-07-11T18:02:26.179Z,988
2017-07-11T18:03:26.178Z,988.01
2017-07-11T18:04:26.182Z,988
2017-07-11T18:05:26.189Z,988.02
2017-07-11T18:06:26.193Z,988.04
2017-07-11T18:07:26.198Z,988.05
2017-07-11T18:08:26.205Z,988.03
2017-07-11T18:09:26.209Z,988.07
2017-07-11T18:10:26.213Z,988.05
2017-07-11T18:11:26.221Z,988.11
2017-07-11T18:12:26.224Z,988.1
2017-07-11T18:13:26.230Z,988.06
2017-07-11T18:14:26.233Z,988.05
2017-07-11T18:15:26.239Z,988.04
2017-07-11T18:16:26.249Z,988.05
2017-07-11T18:17:26.250Z,988.06
2017-07-11T18:18:26.255Z,988.08
2017-07-11T18:19:26.309Z,988.07
2017-07-11T18:20:26.265Z,988.08
2017-07-11T18:21:26.287Z,988.06
2017-07-11T18:22:26.279Z,988.07
2017-07-11T18:23:26.280Z,988.07
2017-07-11T18:24:26.286Z,988.07
2017-07-11T18:25:26.291Z,988
2017-07-11T18:26:26.355Z,988.06
2017-07-11T18:27:26.301Z,988.04
2017-07-11T18:28:26.308Z,988.04
2017-07-11T18:29:26.762Z,988
2017-07-11T18:30:26.316Z,988.03
2017-07-11T18:31:26.321Z,987.97
2017-07-11T18:32:26.335Z,987.95
2017-07-11T18:33:26.343Z,987.87
2017-07-11T18:34:26.349Z,987.88
2017-07-11T18:35:26.342Z,987.92
2017-07-11T18:36:26.347Z,987.92
2017-07-11T18:37:26.351Z,987.93
2017-07-11T18:38:26.356Z,987.98
2017-07-11T18:39:26.360Z,987.97
2017-07-11T18:40:26.365Z,988
2017-07-11T18:41:26.372Z,987.97
2017-07-11T18:42:26.413Z,988
2017-07-11T18:43:26.381Z,988.04
2017-07-11T18:44:26.385Z,988.01
2017-07-11T18:45:26.390Z,988.03
2017-07-11T18:46:26.399Z,988.02
2017-07-11T18:47:26.402Z,988.04
2017-07-11T18:48:26.405Z,988.07
2017-07-11T18:49:26.408Z,988.09
2017-07-11T18:50:26.412Z,988.06
2017-07-11T18:51:26.418Z,988.07
2017-07-11T18:52:26.427Z,988.07
2017-07-11T18:53:26.426Z,988.1
2017-07-11T18:54:26.430Z,988.06
2017-07-11T18:55:26.435Z,988.07
2017-07-11T18:56:26.441Z,988.09
2017-07-11T18:57:26.445Z,988.1
2017-07-11T18:58:26.450Z,988.09
2017-07-11T18:59:26.454Z,988.11
2017-07-11T19:00:26.466Z,988.12
2017-07-11T19:01:26.473Z,988.13
2017-07-11T19:02:26.467Z,988.11
2017-07-11T19:03:26.471Z,988.13
2017-07-11T19:04:26.476Z,988.12
2017-07-11T19:05:26.480Z,988.08
2017-07-11T19:06:26.484Z,988.07
2017-07-11T19:07:26.490Z,988.13
2017-07-11T19:08:26.491Z,988.11
2017-07-11T19:09:26.497Z,988.14
2017-07-11T19:10:26.501Z,988.13
2017-07-11T19:11:26.506Z,988.15
2017-07-11T19:12:26.508Z,988.11
2017-07-11T19:13:26.514Z,988.14
2017-07-11T19:14:26.517Z,988.22
2017-07-11T19:15:26.529Z,988.18
2017-07-11T19:16:26.532Z,988.21
2017-07-11T19:17:26.531Z,988.23
2017-07-11T19:18:26.543Z,988.19
2017-07-11T19:19:26.553Z,988.21
2017-07-11T19:20:26.542Z,988.2
2017-07-11T19:21:26.570Z,988.17
2017-07-11T19:22:26.549Z,988.19
2017-07-11T19:23:26.552Z,988.24
2017-07-11T19:24:26.556Z,988.24
2017-07-11T19:25:26.561Z,988.28
2017-07-11T19:26:26.565Z,988.29
2017-07-11T19:27:26.568Z,988.33
2017-07-11T19:28:26.604Z,988.32
2017-07-11T19:29:26.577Z,988.3
2017-07-11T19:30:26.679Z,988.3
2017-07-11T19:31:26.584Z,988.32
2017-07-11T19:32:26.589Z,988.35
2017-07-11T19:33:26.593Z,988.39
2017-07-11T19:34:26.596Z,988.39
2017-07-11T19:35:26.609Z,988.35
2017-07-11T19:36:27.246Z,988.39
2017-07-11T19:37:26.611Z,988.37
2017-07-11T19:38:26.612Z,988.39
2017-07-11T19:39:26.618Z,988.35
2017-07-11T19:40:26.621Z,988.38
2017-07-11T19:41:26.623Z,988.34
2017-07-11T19:42:26.636Z,988.37
2017-07-11T19:43:26.759Z,988.37
2017-07-11T19:44:26.636Z,988.41
2017-07-11T19:45:29.401Z,988.4
2017-07-11T19:46:26.643Z,988.36
2017-07-11T19:47:26.648Z,988.4
2017-07-11T19:48:26.651Z,988.42
2017-07-11T19:49:26.655Z,988.39
2017-07-11T19:50:26.681Z,988.39
2017-07-11T19:51:26.665Z,988.39
2017-07-11T19:52:26.668Z,988.39
2017-07-11T19:53:26.715Z,988.4
2017-07-11T19:54:26.675Z,988.41
2017-07-11T19:55:26.681Z,988.42
2017-07-11T19:56:26.682Z,988.47
2017-07-11T19:57:26.697Z,988.49
2017-07-11T19:58:26.697Z,988.5
2017-07-11T19:59:26.760Z,988.49
2017-07-11T20:00:26.698Z,988.49
2017-07-11T20:01:26.702Z,988.5
2017-07-11T20:02:26.706Z,988.45
2017-07-11T20:03:26.708Z,988.5
2017-07-11T20:04:26.714Z,988.49
2017-07-11T20:05:26.717Z,988.5
2017-07-11T20:06:26.721Z,988.53
2017-07-11T20:07:26.726Z,988.55
2017-07-11T20:08:26.729Z,988.58
2017-07-11T20:09:26.733Z,988.55
2017-07-11T20:10:26.737Z,988.57
2017-07-11T20:11:26.741Z,988.54
2017-07-11T20:12:26.746Z,988.57
2017-07-11T20:13:26.748Z,988.6
2017-07-11T20:14:26.752Z,988.63
2017-07-11T20:15:26.756Z,988.61
2017-07-11T20:16:26.763Z,988.59
2017-07-11T20:17:26.765Z,988.58
2017-07-11T20:18:26.768Z,988.58
2017-07-11T20:19:26.772Z,988.56
2017-07-11T20:20:26.777Z,988.58
2017-07-11T20:21:26.780Z,988.6
2017-07-11T20:22:26.782Z,988.62
2017-07-11T20:23:26.787Z,988.61
2017-07-11T20:24:26.792Z,988.58
2017-07-11T20:25:26.795Z,988.58
2017-07-11T20:26:26.798Z,988.58
2017-07-11T20:27:26.801Z,988.65
2017-07-11T20:28:26.806Z,988.65
2017-07-11T20:29:26.808Z,988.64
2017-07-11T20:30:26.815Z,988.65
2017-07-11T20:31:26.817Z,988.64
2017-07-11T20:32:26.820Z,988.66
2017-07-11T20:33:26.825Z,988.62
2017-07-11T20:34:26.828Z,988.67
2017-07-11T20:35:26.833Z,988.65
2017-07-11T20:36:26.837Z,988.65
2017-07-11T20:37:26.843Z,988.65
2017-07-11T20:38:26.845Z,988.64
2017-07-11T20:39:26.847Z,988.63
2017-07-11T20:40:26.849Z,988.62
2017-07-11T20:41:26.854Z,988.66
2017-07-11T20:42:26.860Z,988.66
2017-07-11T20:43:26.861Z,988.7
2017-07-11T20:44:26.867Z,988.73
2017-07-11T20:45:26.868Z,988.71
2017-07-11T20:46:30.125Z,988.74
2017-07-11T20:47:26.875Z,988.74
2017-07-11T20:48:26.878Z,988.73
2017-07-11T20:49:26.882Z,988.74
2017-07-11T20:50:26.886Z,988.72
2017-07-11T20:51:26.889Z,988.73
